sensor_id;sensor_type;location;lat;lon;timestamp;P1;durP1;ratioP1;P2;durP2;ratioP2
50066;SDS011;35952;52.524;13.340;2023-02-03T00:01:04;8.57;;;6.90;;
50066;SDS011;35952;52.524;13.340;2023-02-03T00:03:30;9.70;;;5.40;;
50066;SDS011;35952;52.524;13.340;2023-02-03T00:05:55;7.40;;;4.73;;
50066;SDS011;35952;52.524;13.340;2023-02-03T00:08:21;6.10;;;4.53;;
50066;SDS011;35952;52.524;13.340;2023-02-03T00:10:47;9.47;;;4.77;;
50066;SDS011;35952;52.524;13.340;2023-02-03T00:13:13;7.63;;;4.27;;
50066;SDS011;35952;52.524;13.340;2023-02-03T00:15:39;4.50;;;4.10;;
50066;SDS011;35952;52.524;13.340;2023-02-03T00:18:04;6.50;;;4.23;;
50066;SDS011;35952;52.524;13.340;2023-02-03T00:20:30;11.40;;;4.10;;
50066;SDS011;35952;52.524;13.340;2023-02-03T00:23:01;9.47;;;4.43;;
50066;SDS011;35952;52.524;13.340;2023-02-03T00:25:30;11.60;;;5.53;;
50066;SDS011;35952;52.524;13.340;2023-02-03T00:27:55;12.83;;;3.63;;
50066;SDS011;35952;52.524;13.340;2023-02-03T00:30:22;7.00;;;4.23;;
50066;SDS011;35952;52.524;13.340;2023-02-03T00:32:47;13.23;;;4.50;;
50066;SDS011;35952;52.524;13.340;2023-02-03T00:35:13;7.40;;;4.33;;
50066;SDS011;35952;52.524;13.340;2023-02-03T00:37:38;9.43;;;4.00;;
50066;SDS011;35952;52.524;13.340;2023-02-03T00:40:04;8.63;;;4.87;;
50066;SDS011;35952;52.524;13.340;2023-02-03T00:42:30;6.57;;;4.40;;
50066;SDS011;35952;52.524;13.340;2023-02-03T00:44:55;6.90;;;5.00;;
50066;SDS011;35952;52.524;13.340;2023-02-03T00:47:23;10.73;;;4.17;;
50066;SDS011;35952;52.524;13.340;2023-02-03T00:49:52;10.98;;;4.43;;
50066;SDS011;35952;52.524;13.340;2023-02-03T00:52:17;7.80;;;3.70;;
50066;SDS011;35952;52.524;13.340;2023-02-03T00:54:43;7.33;;;4.33;;
50066;SDS011;35952;52.524;13.340;2023-02-03T00:57:09;8.50;;;4.73;;
50066;SDS011;35952;52.524;13.340;2023-02-03T00:59:37;13.93;;;4.47;;
50066;SDS011;35952;52.524;13.340;2023-02-03T01:02:05;10.18;;;5.25;;
50066;SDS011;35952;52.524;13.340;2023-02-03T01:04:41;12.83;;;4.73;;
50066;SDS011;35952;52.524;13.340;2023-02-03T01:07:08;10.73;;;4.35;;
50066;SDS011;35952;52.524;13.340;2023-02-03T01:09:41;8.43;;;5.07;;
50066;SDS011;35952;52.524;13.340;2023-02-03T01:12:15;7.93;;;4.78;;
50066;SDS011;35952;52.524;13.340;2023-02-03T01:14:48;14.20;;;5.40;;
50066;SDS011;35952;52.524;13.340;2023-02-03T01:17:21;10.25;;;5.05;;
50066;SDS011;35952;52.524;13.340;2023-02-03T01:19:49;14.98;;;5.40;;
50066;SDS011;35952;52.524;13.340;2023-02-03T01:22:18;9.40;;;5.75;;
50066;SDS011;35952;52.524;13.340;2023-02-03T01:24:49;11.10;;;6.15;;
50066;SDS011;35952;52.524;13.340;2023-02-03T01:27:17;9.10;;;4.90;;
50066;SDS011;35952;52.524;13.340;2023-02-03T01:29:45;8.30;;;6.35;;
50066;SDS011;35952;52.524;13.340;2023-02-03T01:35:00;9.20;;;5.88;;
50066;SDS011;35952;52.524;13.340;2023-02-03T01:37:28;12.63;;;6.65;;
50066;SDS011;35952;52.524;13.340;2023-02-03T01:40:20;9.45;;;5.38;;
50066;SDS011;35952;52.524;13.340;2023-02-03T01:42:47;14.02;;;6.32;;
50066;SDS011;35952;52.524;13.340;2023-02-03T01:45:18;13.18;;;5.95;;
50066;SDS011;35952;52.524;13.340;2023-02-03T01:47:54;8.73;;;6.22;;
50066;SDS011;35952;52.524;13.340;2023-02-03T01:50:34;10.88;;;5.70;;
50066;SDS011;35952;52.524;13.340;2023-02-03T01:53:06;15.25;;;6.40;;
50066;SDS011;35952;52.524;13.340;2023-02-03T01:55:45;8.95;;;6.32;;
50066;SDS011;35952;52.524;13.340;2023-02-03T01:58:22;7.95;;;6.35;;
50066;SDS011;35952;52.524;13.340;2023-02-03T02:00:54;8.90;;;6.00;;
50066;SDS011;35952;52.524;13.340;2023-02-03T02:03:28;14.25;;;6.95;;
50066;SDS011;35952;52.524;13.340;2023-02-03T02:06:05;12.57;;;6.30;;
50066;SDS011;35952;52.524;13.340;2023-02-03T02:11:39;7.28;;;6.43;;
50066;SDS011;35952;52.524;13.340;2023-02-03T02:14:33;7.97;;;7.18;;
50066;SDS011;35952;52.524;13.340;2023-02-03T02:25:24;7.10;;;5.43;;
50066;SDS011;35952;52.524;13.340;2023-02-03T02:31:05;11.07;;;6.55;;
50066;SDS011;35952;52.524;13.340;2023-02-03T02:34:07;14.93;;;6.95;;
50066;SDS011;35952;52.524;13.340;2023-02-03T02:36:57;7.93;;;6.63;;
50066;SDS011;35952;52.524;13.340;2023-02-03T02:39:38;9.75;;;6.80;;
50066;SDS011;35952;52.524;13.340;2023-02-03T02:42:34;8.98;;;6.72;;
50066;SDS011;35952;52.524;13.340;2023-02-03T02:45:25;10.30;;;5.53;;
50066;SDS011;35952;52.524;13.340;2023-02-03T02:48:39;11.35;;;7.50;;
50066;SDS011;35952;52.524;13.340;2023-02-03T02:50:51;17.70;;;7.30;;
50066;SDS011;35952;52.524;13.340;2023-02-03T02:53:19;9.45;;;6.22;;
50066;SDS011;35952;52.524;13.340;2023-02-03T02:55:48;7.35;;;6.60;;
50066;SDS011;35952;52.524;13.340;2023-02-03T02:58:15;7.97;;;5.65;;
50066;SDS011;35952;52.524;13.340;2023-02-03T03:00:43;7.93;;;5.47;;
50066;SDS011;35952;52.524;13.340;2023-02-03T03:03:18;12.32;;;6.28;;
50066;SDS011;35952;52.524;13.340;2023-02-03T03:05:50;5.80;;;5.30;;
50066;SDS011;35952;52.524;13.340;2023-02-03T03:08:20;8.40;;;4.53;;
50066;SDS011;35952;52.524;13.340;2023-02-03T03:10:51;6.43;;;5.05;;
50066;SDS011;35952;52.524;13.340;2023-02-03T03:13:21;5.70;;;5.07;;
50066;SDS011;35952;52.524;13.340;2023-02-03T03:15:51;9.40;;;6.28;;
50066;SDS011;35952;52.524;13.340;2023-02-03T03:18:22;11.75;;;6.15;;
50066;SDS011;35952;52.524;13.340;2023-02-03T03:20:56;8.13;;;5.13;;
50066;SDS011;35952;52.524;13.340;2023-02-03T03:23:30;5.93;;;5.30;;
50066;SDS011;35952;52.524;13.340;2023-02-03T03:26:04;8.57;;;5.68;;
50066;SDS011;35952;52.524;13.340;2023-02-03T03:28:39;6.18;;;4.70;;
50066;SDS011;35952;52.524;13.340;2023-02-03T03:31:11;5.07;;;4.57;;
50066;SDS011;35952;52.524;13.340;2023-02-03T03:33:37;6.53;;;4.73;;
50066;SDS011;35952;52.524;13.340;2023-02-03T03:36:21;7.88;;;5.30;;
50066;SDS011;35952;52.524;13.340;2023-02-03T03:41:55;4.30;;;3.90;;
50066;SDS011;35952;52.524;13.340;2023-02-03T03:44:25;5.75;;;4.20;;
50066;SDS011;35952;52.524;13.340;2023-02-03T03:47:00;4.95;;;4.28;;
50066;SDS011;35952;52.524;13.340;2023-02-03T03:49:47;4.20;;;3.90;;
50066;SDS011;35952;52.524;13.340;2023-02-03T03:52:17;4.55;;;4.15;;
50066;SDS011;35952;52.524;13.340;2023-02-03T03:54:47;3.97;;;3.60;;
50066;SDS011;35952;52.524;13.340;2023-02-03T03:57:20;5.05;;;3.92;;
50066;SDS011;35952;52.524;13.340;2023-02-03T03:59:52;4.15;;;3.85;;
50066;SDS011;35952;52.524;13.340;2023-02-03T04:02:18;4.15;;;3.75;;
50066;SDS011;35952;52.524;13.340;2023-02-03T04:04:45;6.10;;;4.25;;
50066;SDS011;35952;52.524;13.340;2023-02-03T04:07:12;3.72;;;3.42;;
50066;SDS011;35952;52.524;13.340;2023-02-03T04:09:38;5.35;;;3.80;;
50066;SDS011;35952;52.524;13.340;2023-02-03T04:12:08;4.75;;;4.28;;
50066;SDS011;35952;52.524;13.340;2023-02-03T04:14:43;4.93;;;4.43;;
50066;SDS011;35952;52.524;13.340;2023-02-03T04:17:09;4.90;;;4.40;;
50066;SDS011;35952;52.524;13.340;2023-02-03T04:19:34;4.87;;;4.37;;
50066;SDS011;35952;52.524;13.340;2023-02-03T04:22:00;4.80;;;4.40;;
50066;SDS011;35952;52.524;13.340;2023-02-03T04:24:25;5.77;;;4.67;;
50066;SDS011;35952;52.524;13.340;2023-02-03T04:26:51;7.63;;;5.00;;
50066;SDS011;35952;52.524;13.340;2023-02-03T04:29:16;5.87;;;5.37;;
50066;SDS011;35952;52.524;13.340;2023-02-03T04:31:42;6.03;;;5.43;;
50066;SDS011;35952;52.524;13.340;2023-02-03T04:34:07;9.70;;;7.00;;
50066;SDS011;35952;52.524;13.340;2023-02-03T04:36:33;8.07;;;7.20;;
50066;SDS011;35952;52.524;13.340;2023-02-03T04:38:58;7.30;;;6.13;;
50066;SDS011;35952;52.524;13.340;2023-02-03T04:41:24;8.53;;;7.10;;
50066;SDS011;35952;52.524;13.340;2023-02-03T04:43:49;9.20;;;7.20;;
50066;SDS011;35952;52.524;13.340;2023-02-03T04:46:15;11.90;;;8.37;;
50066;SDS011;35952;52.524;13.340;2023-02-03T04:48:42;11.83;;;9.10;;
50066;SDS011;35952;52.524;13.340;2023-02-03T04:51:07;10.47;;;8.43;;
50066;SDS011;35952;52.524;13.340;2023-02-03T04:53:33;11.87;;;8.67;;
50066;SDS011;35952;52.524;13.340;2023-02-03T04:55:59;10.60;;;9.40;;
50066;SDS011;35952;52.524;13.340;2023-02-03T04:58:24;13.63;;;10.40;;
50066;SDS011;35952;52.524;13.340;2023-02-03T05:00:51;13.70;;;10.87;;
50066;SDS011;35952;52.524;13.340;2023-02-03T05:03:17;15.43;;;11.37;;
50066;SDS011;35952;52.524;13.340;2023-02-03T05:05:43;16.70;;;12.73;;
50066;SDS011;35952;52.524;13.340;2023-02-03T05:08:08;19.70;;;15.03;;
50066;SDS011;35952;52.524;13.340;2023-02-03T05:10:34;22.83;;;14.07;;
50066;SDS011;35952;52.524;13.340;2023-02-03T05:12:59;16.90;;;13.57;;
50066;SDS011;35952;52.524;13.340;2023-02-03T05:15:25;21.03;;;15.87;;
50066;SDS011;35952;52.524;13.340;2023-02-03T05:17:51;24.70;;;15.70;;
50066;SDS011;35952;52.524;13.340;2023-02-03T05:20:17;22.40;;;15.90;;
50066;SDS011;35952;52.524;13.340;2023-02-03T05:22:42;20.70;;;15.30;;
50066;SDS011;35952;52.524;13.340;2023-02-03T05:25:08;26.23;;;17.60;;
50066;SDS011;35952;52.524;13.340;2023-02-03T05:27:34;25.40;;;18.07;;
50066;SDS011;35952;52.524;13.340;2023-02-03T05:30:02;21.37;;;15.23;;
50066;SDS011;35952;52.524;13.340;2023-02-03T05:32:27;31.17;;;18.43;;
50066;SDS011;35952;52.524;13.340;2023-02-03T05:34:53;29.90;;;17.40;;
50066;SDS011;35952;52.524;13.340;2023-02-03T05:37:18;31.90;;;18.83;;
50066;SDS011;35952;52.524;13.340;2023-02-03T05:39:44;27.13;;;18.27;;
50066;SDS011;35952;52.524;13.340;2023-02-03T05:42:09;33.80;;;20.53;;
50066;SDS011;35952;52.524;13.340;2023-02-03T05:44:35;33.50;;;21.07;;
50066;SDS011;35952;52.524;13.340;2023-02-03T05:47:01;26.23;;;17.50;;
50066;SDS011;35952;52.524;13.340;2023-02-03T05:49:26;29.73;;;19.13;;
50066;SDS011;35952;52.524;13.340;2023-02-03T05:51:52;34.00;;;21.30;;
50066;SDS011;35952;52.524;13.340;2023-02-03T05:54:19;30.77;;;18.93;;
50066;SDS011;35952;52.524;13.340;2023-02-03T05:56:45;29.63;;;19.50;;
50066;SDS011;35952;52.524;13.340;2023-02-03T05:59:10;33.40;;;20.10;;
50066;SDS011;35952;52.524;13.340;2023-02-03T06:01:36;37.93;;;20.00;;
50066;SDS011;35952;52.524;13.340;2023-02-03T06:04:02;31.87;;;18.93;;
50066;SDS011;35952;52.524;13.340;2023-02-03T06:06:29;35.20;;;20.50;;
50066;SDS011;35952;52.524;13.340;2023-02-03T06:09:02;37.03;;;19.93;;
50066;SDS011;35952;52.524;13.340;2023-02-03T06:11:29;24.17;;;18.53;;
50066;SDS011;35952;52.524;13.340;2023-02-03T06:13:55;30.90;;;20.77;;
50066;SDS011;35952;52.524;13.340;2023-02-03T06:16:22;35.83;;;20.50;;
50066;SDS011;35952;52.524;13.340;2023-02-03T06:18:49;38.13;;;21.10;;
50066;SDS011;35952;52.524;13.340;2023-02-03T06:21:16;28.47;;;18.97;;
50066;SDS011;35952;52.524;13.340;2023-02-03T06:23:42;30.07;;;21.10;;
50066;SDS011;35952;52.524;13.340;2023-02-03T06:26:07;32.73;;;19.37;;
50066;SDS011;35952;52.524;13.340;2023-02-03T06:28:33;28.03;;;19.30;;
50066;SDS011;35952;52.524;13.340;2023-02-03T06:30:59;28.87;;;19.07;;
50066;SDS011;35952;52.524;13.340;2023-02-03T06:33:24;31.23;;;19.40;;
50066;SDS011;35952;52.524;13.340;2023-02-03T06:35:50;30.87;;;18.70;;
50066;SDS011;35952;52.524;13.340;2023-02-03T06:38:15;34.43;;;21.83;;
50066;SDS011;35952;52.524;13.340;2023-02-03T06:40:41;28.93;;;19.43;;
50066;SDS011;35952;52.524;13.340;2023-02-03T06:43:06;26.63;;;17.87;;
50066;SDS011;35952;52.524;13.340;2023-02-03T06:45:32;34.70;;;20.20;;
50066;SDS011;35952;52.524;13.340;2023-02-03T06:47:58;30.13;;;19.43;;
50066;SDS011;35952;52.524;13.340;2023-02-03T06:50:24;31.77;;;20.30;;
50066;SDS011;35952;52.524;13.340;2023-02-03T06:52:49;31.73;;;20.53;;
50066;SDS011;35952;52.524;13.340;2023-02-03T06:55:15;32.87;;;21.50;;
50066;SDS011;35952;52.524;13.340;2023-02-03T06:57:44;28.00;;;18.90;;
50066;SDS011;35952;52.524;13.340;2023-02-03T07:00:11;25.63;;;17.70;;
50066;SDS011;35952;52.524;13.340;2023-02-03T07:02:38;32.10;;;19.97;;
50066;SDS011;35952;52.524;13.340;2023-02-03T07:05:04;27.90;;;18.63;;
50066;SDS011;35952;52.524;13.340;2023-02-03T07:07:30;25.90;;;17.43;;
50066;SDS011;35952;52.524;13.340;2023-02-03T07:09:56;32.17;;;19.17;;
50066;SDS011;35952;52.524;13.340;2023-02-03T07:12:22;23.70;;;18.90;;
50066;SDS011;35952;52.524;13.340;2023-02-03T07:14:47;26.00;;;19.50;;
50066;SDS011;35952;52.524;13.340;2023-02-03T07:17:13;23.70;;;17.50;;
50066;SDS011;35952;52.524;13.340;2023-02-03T07:19:38;23.60;;;18.20;;
50066;SDS011;35952;52.524;13.340;2023-02-03T07:22:04;28.37;;;19.13;;
50066;SDS011;35952;52.524;13.340;2023-02-03T07:24:29;27.17;;;19.27;;
50066;SDS011;35952;52.524;13.340;2023-02-03T07:26:55;24.17;;;18.27;;
50066;SDS011;35952;52.524;13.340;2023-02-03T07:29:20;26.70;;;17.20;;
50066;SDS011;35952;52.524;13.340;2023-02-03T07:31:46;25.83;;;18.33;;
50066;SDS011;35952;52.524;13.340;2023-02-03T07:34:11;25.10;;;18.53;;
50066;SDS011;35952;52.524;13.340;2023-02-03T07:36:37;30.57;;;20.20;;
50066;SDS011;35952;52.524;13.340;2023-02-03T07:39:02;21.73;;;19.43;;
50066;SDS011;35952;52.524;13.340;2023-02-03T07:41:28;33.33;;;22.57;;
50066;SDS011;35952;52.524;13.340;2023-02-03T07:43:53;23.80;;;19.27;;
50066;SDS011;35952;52.524;13.340;2023-02-03T07:46:19;23.90;;;17.73;;
50066;SDS011;35952;52.524;13.340;2023-02-03T07:48:44;19.83;;;16.13;;
50066;SDS011;35952;52.524;13.340;2023-02-03T07:51:10;20.20;;;15.63;;
50066;SDS011;35952;52.524;13.340;2023-02-03T07:53:35;23.93;;;18.00;;
50066;SDS011;35952;52.524;13.340;2023-02-03T07:56:01;21.23;;;17.00;;
50066;SDS011;35952;52.524;13.340;2023-02-03T07:58:28;17.57;;;14.90;;
50066;SDS011;35952;52.524;13.340;2023-02-03T08:00:54;19.40;;;14.80;;
50066;SDS011;35952;52.524;13.340;2023-02-03T08:03:20;22.90;;;15.83;;
50066;SDS011;35952;52.524;13.340;2023-02-03T08:05:46;20.07;;;14.03;;
50066;SDS011;35952;52.524;13.340;2023-02-03T08:08:11;20.07;;;14.37;;
50066;SDS011;35952;52.524;13.340;2023-02-03T08:10:37;17.80;;;13.80;;
50066;SDS011;35952;52.524;13.340;2023-02-03T08:13:02;15.73;;;12.40;;
50066;SDS011;35952;52.524;13.340;2023-02-03T08:15:28;14.67;;;11.37;;
50066;SDS011;35952;52.524;13.340;2023-02-03T08:17:54;16.90;;;13.10;;
50066;SDS011;35952;52.524;13.340;2023-02-03T08:20:19;16.23;;;12.63;;
50066;SDS011;35952;52.524;13.340;2023-02-03T08:22:45;19.97;;;13.10;;
50066;SDS011;35952;52.524;13.340;2023-02-03T08:25:11;17.60;;;13.80;;
50066;SDS011;35952;52.524;13.340;2023-02-03T08:27:37;14.40;;;10.80;;
50066;SDS011;35952;52.524;13.340;2023-02-03T08:30:03;16.47;;;12.53;;
50066;SDS011;35952;52.524;13.340;2023-02-03T08:32:29;17.33;;;11.90;;
50066;SDS011;35952;52.524;13.340;2023-02-03T08:34:56;15.33;;;11.40;;
50066;SDS011;35952;52.524;13.340;2023-02-03T08:37:22;12.43;;;10.27;;
50066;SDS011;35952;52.524;13.340;2023-02-03T08:39:49;11.30;;;9.60;;
50066;SDS011;35952;52.524;13.340;2023-02-03T08:42:15;11.30;;;10.00;;
50066;SDS011;35952;52.524;13.340;2023-02-03T08:44:41;10.83;;;9.73;;
50066;SDS011;35952;52.524;13.340;2023-02-03T08:47:08;12.20;;;10.03;;
50066;SDS011;35952;52.524;13.340;2023-02-03T08:49:35;11.17;;;8.93;;
50066;SDS011;35952;52.524;13.340;2023-02-03T08:52:03;10.07;;;9.07;;
50066;SDS011;35952;52.524;13.340;2023-02-03T08:54:30;12.13;;;9.47;;
50066;SDS011;35952;52.524;13.340;2023-02-03T08:56:56;15.37;;;10.63;;
50066;SDS011;35952;52.524;13.340;2023-02-03T08:59:22;16.57;;;9.33;;
50066;SDS011;35952;52.524;13.340;2023-02-03T09:01:48;10.70;;;8.90;;
50066;SDS011;35952;52.524;13.340;2023-02-03T09:04:15;11.23;;;9.90;;
50066;SDS011;35952;52.524;13.340;2023-02-03T09:06:43;13.63;;;9.00;;
50066;SDS011;35952;52.524;13.340;2023-02-03T09:09:13;16.40;;;9.80;;
50066;SDS011;35952;52.524;13.340;2023-02-03T09:11:39;10.03;;;8.90;;
50066;SDS011;35952;52.524;13.340;2023-02-03T09:14:06;10.50;;;7.60;;
50066;SDS011;35952;52.524;13.340;2023-02-03T09:16:32;10.07;;;8.87;;
50066;SDS011;35952;52.524;13.340;2023-02-03T09:18:58;9.43;;;8.40;;
50066;SDS011;35952;52.524;13.340;2023-02-03T09:21:26;9.33;;;7.57;;
50066;SDS011;35952;52.524;13.340;2023-02-03T09:23:52;9.20;;;8.20;;
50066;SDS011;35952;52.524;13.340;2023-02-03T09:26:17;9.40;;;7.53;;
50066;SDS011;35952;52.524;13.340;2023-02-03T09:28:43;8.90;;;7.70;;
50066;SDS011;35952;52.524;13.340;2023-02-03T09:31:11;11.33;;;8.60;;
50066;SDS011;35952;52.524;13.340;2023-02-03T09:33:39;9.03;;;6.73;;
50066;SDS011;35952;52.524;13.340;2023-02-03T09:36:05;8.17;;;7.20;;
50066;SDS011;35952;52.524;13.340;2023-02-03T09:38:32;8.43;;;6.70;;
50066;SDS011;35952;52.524;13.340;2023-02-03T09:40:59;9.50;;;6.50;;
50066;SDS011;35952;52.524;13.340;2023-02-03T09:46:18;13.10;;;7.50;;
50066;SDS011;35952;52.524;13.340;2023-02-03T09:48:50;8.10;;;6.53;;
50066;SDS011;35952;52.524;13.340;2023-02-03T09:51:21;7.03;;;6.13;;
50066;SDS011;35952;52.524;13.340;2023-02-03T09:53:54;7.20;;;6.50;;
50066;SDS011;35952;52.524;13.340;2023-02-03T09:56:41;8.67;;;7.60;;
50066;SDS011;35952;52.524;13.340;2023-02-03T09:59:16;9.00;;;7.30;;
50066;SDS011;35952;52.524;13.340;2023-02-03T10:04:25;8.00;;;7.17;;
50066;SDS011;35952;52.524;13.340;2023-02-03T10:07:05;8.40;;;6.37;;
50066;SDS011;35952;52.524;13.340;2023-02-03T10:12:46;7.30;;;6.60;;
50066;SDS011;35952;52.524;13.340;2023-02-03T10:18:49;4.73;;;4.20;;
50066;SDS011;35952;52.524;13.340;2023-02-03T10:21:30;6.37;;;4.53;;
50066;SDS011;35952;52.524;13.340;2023-02-03T10:23:59;5.70;;;5.10;;
50066;SDS011;35952;52.524;13.340;2023-02-03T10:26:27;5.30;;;4.80;;
50066;SDS011;35952;52.524;13.340;2023-02-03T10:28:54;6.07;;;5.47;;
50066;SDS011;35952;52.524;13.340;2023-02-03T10:31:40;5.73;;;4.93;;
50066;SDS011;35952;52.524;13.340;2023-02-03T10:34:09;8.30;;;4.93;;
50066;SDS011;35952;52.524;13.340;2023-02-03T10:36:40;6.80;;;5.00;;
50066;SDS011;35952;52.524;13.340;2023-02-03T10:39:40;7.37;;;4.67;;
50066;SDS011;35952;52.524;13.340;2023-02-03T10:42:14;4.83;;;4.43;;
50066;SDS011;35952;52.524;13.340;2023-02-03T10:44:42;3.43;;;3.13;;
50066;SDS011;35952;52.524;13.340;2023-02-03T10:47:33;3.20;;;2.73;;
50066;SDS011;35952;52.524;13.340;2023-02-03T10:50:04;2.63;;;2.23;;
50066;SDS011;35952;52.524;13.340;2023-02-03T10:52:39;1.60;;;1.50;;
50066;SDS011;35952;52.524;13.340;2023-02-03T10:55:07;2.87;;;1.80;;
50066;SDS011;35952;52.524;13.340;2023-02-03T10:57:54;5.20;;;1.73;;
50066;SDS011;35952;52.524;13.340;2023-02-03T11:00:21;5.17;;;2.20;;
50066;SDS011;35952;52.524;13.340;2023-02-03T11:03:00;3.07;;;2.50;;
50066;SDS011;35952;52.524;13.340;2023-02-03T11:06:02;5.70;;;3.53;;
50066;SDS011;35952;52.524;13.340;2023-02-03T11:08:28;3.30;;;2.17;;
50066;SDS011;35952;52.524;13.340;2023-02-03T11:11:00;5.30;;;2.63;;
50066;SDS011;35952;52.524;13.340;2023-02-03T11:13:30;6.80;;;2.97;;
50066;SDS011;35952;52.524;13.340;2023-02-03T11:16:08;11.07;;;3.00;;
50066;SDS011;35952;52.524;13.340;2023-02-03T11:23:59;7.70;;;3.00;;
50066;SDS011;35952;52.524;13.340;2023-02-03T11:29:18;12.53;;;4.23;;
50066;SDS011;35952;52.524;13.340;2023-02-03T11:31:59;7.37;;;2.90;;
50066;SDS011;35952;52.524;13.340;2023-02-03T11:34:32;10.50;;;4.77;;
50066;SDS011;35952;52.524;13.340;2023-02-03T11:42:58;11.00;;;3.67;;
50066;SDS011;35952;52.524;13.340;2023-02-03T11:48:04;11.97;;;3.60;;
50066;SDS011;35952;52.524;13.340;2023-02-03T11:59:43;17.63;;;4.30;;
50066;SDS011;35952;52.524;13.340;2023-02-03T12:05:05;14.90;;;4.07;;
50066;SDS011;35952;52.524;13.340;2023-02-03T12:13:29;15.67;;;5.20;;
50066;SDS011;35952;52.524;13.340;2023-02-03T12:19:21;14.30;;;4.77;;
50066;SDS011;35952;52.524;13.340;2023-02-03T12:24:52;14.73;;;3.93;;
50066;SDS011;35952;52.524;13.340;2023-02-03T12:27:34;23.60;;;5.80;;
50066;SDS011;35952;52.524;13.340;2023-02-03T12:33:18;13.57;;;5.03;;
50066;SDS011;35952;52.524;13.340;2023-02-03T12:40:50;16.13;;;5.00;;
50066;SDS011;35952;52.524;13.340;2023-02-03T12:43:29;14.63;;;5.43;;
50066;SDS011;35952;52.524;13.340;2023-02-03T12:48:59;20.70;;;5.17;;
50066;SDS011;35952;52.524;13.340;2023-02-03T12:51:45;23.83;;;5.87;;
50066;SDS011;35952;52.524;13.340;2023-02-03T12:55:05;22.80;;;6.20;;
50066;SDS011;35952;52.524;13.340;2023-02-03T12:57:48;26.07;;;6.73;;
50066;SDS011;35952;52.524;13.340;2023-02-03T13:06:28;17.30;;;5.57;;
50066;SDS011;35952;52.524;13.340;2023-02-03T13:12:05;13.07;;;3.77;;
50066;SDS011;35952;52.524;13.340;2023-02-03T13:20:34;16.90;;;4.50;;
50066;SDS011;35952;52.524;13.340;2023-02-03T13:23:05;15.90;;;4.50;;
50066;SDS011;35952;52.524;13.340;2023-02-03T13:25:44;18.37;;;5.50;;
50066;SDS011;35952;52.524;13.340;2023-02-03T13:31:02;12.93;;;4.37;;
50066;SDS011;35952;52.524;13.340;2023-02-03T13:39:32;15.13;;;3.00;;
50066;SDS011;35952;52.524;13.340;2023-02-03T13:42:23;12.90;;;3.10;;
50066;SDS011;35952;52.524;13.340;2023-02-03T13:44:56;13.77;;;3.10;;
50066;SDS011;35952;52.524;13.340;2023-02-03T13:47:46;10.90;;;4.10;;
50066;SDS011;35952;52.524;13.340;2023-02-03T13:50:18;17.27;;;5.07;;
50066;SDS011;35952;52.524;13.340;2023-02-03T13:53:02;18.07;;;4.43;;
50066;SDS011;35952;52.524;13.340;2023-02-03T13:55:38;17.60;;;4.40;;
50066;SDS011;35952;52.524;13.340;2023-02-03T13:58:11;13.30;;;4.30;;
50066;SDS011;35952;52.524;13.340;2023-02-03T14:03:17;16.87;;;4.00;;
50066;SDS011;35952;52.524;13.340;2023-02-03T14:06:03;15.20;;;4.57;;
50066;SDS011;35952;52.524;13.340;2023-02-03T14:16:36;19.43;;;4.27;;
50066;SDS011;35952;52.524;13.340;2023-02-03T14:19:02;28.67;;;5.10;;
50066;SDS011;35952;52.524;13.340;2023-02-03T14:21:36;18.37;;;5.93;;
50066;SDS011;35952;52.524;13.340;2023-02-03T14:24:07;20.80;;;5.60;;
50066;SDS011;35952;52.524;13.340;2023-02-03T14:26:36;17.10;;;5.93;;
50066;SDS011;35952;52.524;13.340;2023-02-03T14:29:05;17.80;;;5.53;;
50066;SDS011;35952;52.524;13.340;2023-02-03T14:31:50;14.27;;;5.93;;
50066;SDS011;35952;52.524;13.340;2023-02-03T14:37:16;16.60;;;4.73;;
50066;SDS011;35952;52.524;13.340;2023-02-03T14:42:41;20.03;;;5.33;;
50066;SDS011;35952;52.524;13.340;2023-02-03T14:50:57;29.23;;;7.13;;
50066;SDS011;35952;52.524;13.340;2023-02-03T14:53:49;19.93;;;6.47;;
50066;SDS011;35952;52.524;13.340;2023-02-03T14:56:36;26.43;;;6.73;;
50066;SDS011;35952;52.524;13.340;2023-02-03T14:59:23;34.70;;;10.10;;
50066;SDS011;35952;52.524;13.340;2023-02-03T15:04:21;27.73;;;5.60;;
50066;SDS011;35952;52.524;13.340;2023-02-03T15:06:49;14.57;;;5.47;;
50066;SDS011;35952;52.524;13.340;2023-02-03T15:11:47;26.63;;;5.73;;
50066;SDS011;35952;52.524;13.340;2023-02-03T15:14:20;17.07;;;6.23;;
50066;SDS011;35952;52.524;13.340;2023-02-03T15:16:49;15.90;;;4.57;;
50066;SDS011;35952;52.524;13.340;2023-02-03T15:19:31;24.07;;;6.00;;
50066;SDS011;35952;52.524;13.340;2023-02-03T15:22:15;18.93;;;5.33;;
50066;SDS011;35952;52.524;13.340;2023-02-03T15:24:56;13.73;;;4.53;;
50066;SDS011;35952;52.524;13.340;2023-02-03T15:27:24;14.20;;;4.47;;
50066;SDS011;35952;52.524;13.340;2023-02-03T15:29:52;21.43;;;5.50;;
50066;SDS011;35952;52.524;13.340;2023-02-03T15:32:25;10.80;;;4.33;;
50066;SDS011;35952;52.524;13.340;2023-02-03T15:34:58;11.00;;;4.93;;
50066;SDS011;35952;52.524;13.340;2023-02-03T15:37:41;13.00;;;4.93;;
50066;SDS011;35952;52.524;13.340;2023-02-03T15:40:19;14.47;;;4.50;;
50066;SDS011;35952;52.524;13.340;2023-02-03T15:42:51;23.00;;;4.80;;
50066;SDS011;35952;52.524;13.340;2023-02-03T15:45:34;24.63;;;6.60;;
50066;SDS011;35952;52.524;13.340;2023-02-03T15:50:48;18.73;;;4.80;;
50066;SDS011;35952;52.524;13.340;2023-02-03T15:53:26;12.83;;;4.57;;
50066;SDS011;35952;52.524;13.340;2023-02-03T15:55:58;16.47;;;5.20;;
50066;SDS011;35952;52.524;13.340;2023-02-03T15:58:29;32.00;;;6.07;;
50066;SDS011;35952;52.524;13.340;2023-02-03T16:01:03;13.57;;;4.90;;
50066;SDS011;35952;52.524;13.340;2023-02-03T16:08:59;13.70;;;4.60;;
50066;SDS011;35952;52.524;13.340;2023-02-03T16:11:38;26.53;;;5.80;;
50066;SDS011;35952;52.524;13.340;2023-02-03T16:14:05;16.60;;;5.07;;
50066;SDS011;35952;52.524;13.340;2023-02-03T16:19:04;16.20;;;5.67;;
50066;SDS011;35952;52.524;13.340;2023-02-03T16:21:50;19.13;;;5.37;;
50066;SDS011;35952;52.524;13.340;2023-02-03T16:29:51;21.00;;;5.10;;
50066;SDS011;35952;52.524;13.340;2023-02-03T16:32:36;30.67;;;6.90;;
50066;SDS011;35952;52.524;13.340;2023-02-03T16:35:20;21.80;;;6.40;;
50066;SDS011;35952;52.524;13.340;2023-02-03T16:38:05;17.37;;;5.40;;
50066;SDS011;35952;52.524;13.340;2023-02-03T16:40:56;18.23;;;6.30;;
50066;SDS011;35952;52.524;13.340;2023-02-03T16:43:40;20.27;;;6.87;;
50066;SDS011;35952;52.524;13.340;2023-02-03T16:46:24;23.30;;;5.67;;
50066;SDS011;35952;52.524;13.340;2023-02-03T16:49:08;18.87;;;5.30;;
50066;SDS011;35952;52.524;13.340;2023-02-03T16:51:52;20.53;;;5.67;;
50066;SDS011;35952;52.524;13.340;2023-02-03T16:54:17;17.67;;;7.13;;
50066;SDS011;35952;52.524;13.340;2023-02-03T16:56:43;18.90;;;7.27;;
50066;SDS011;35952;52.524;13.340;2023-02-03T16:59:09;25.50;;;7.70;;
50066;SDS011;35952;52.524;13.340;2023-02-03T17:01:35;18.53;;;5.20;;
50066;SDS011;35952;52.524;13.340;2023-02-03T17:04:01;17.50;;;5.47;;
50066;SDS011;35952;52.524;13.340;2023-02-03T17:06:29;23.13;;;5.60;;
50066;SDS011;35952;52.524;13.340;2023-02-03T17:08:58;24.00;;;5.57;;
50066;SDS011;35952;52.524;13.340;2023-02-03T17:11:24;23.33;;;5.90;;
50066;SDS011;35952;52.524;13.340;2023-02-03T17:13:52;29.67;;;6.90;;
50066;SDS011;35952;52.524;13.340;2023-02-03T17:16:19;20.83;;;5.77;;